Hunt Field Lander US
ICAO: KLND
IATA: LND
Category: Medium
Scheduled Services: No

Elevation: 5586 ft
TransAlt. 18000 ft.

Airport Communications:
ASOS:118.15
CTAF/UNICOM:122.8

KLND Zoom In..

If you have problems with the map follow the link
https://www.worldairports.se/pages/airport.php?
ICAO=KLND

Runways:

(A) RW 03 length 5007 ft width 100 ft
---- / hdg 36

(B) RW 21 length 5007 ft width 100 ft
---- / hdg 216

Location; KLND
Day. 05 / Time. 20.53 Zulu
* Altimeter: 30.06
* Temperature: 6/° c. 42.8°f.
* Wind from: 100° Speed 03 kn.
Dewpoint: //° c.
Visibility: 10 Statute Miles.
Clouds: Clear (automated report).

KLND 052053Z AUTO 10003KT 10SM CLR M02/M07 A3006 RMK AO2 SLP227 6//// T10171067 53001


Wind From 100°
Speed 03 kn.

 
 
jpsmedia worldairports.se 2019   terms of use